Time;durP1;ratioP1;P1;durP2;ratioP2;P2;SDS_P1;SDS_P2;PMS_P1;PMS_P2;Temp;Humidity;BMP_temperature;BMP_pressure;BME280_temperature;BME280_humidity;BME280_pressure;Samples;Min_cycle;Max_cycle;Signal;HPM_P1;HPM_P2
2023/10/12 00:02:59;;;;;;;12.68;2.53;;;;;;;;;;6333966;28;20317;-70
2023/10/12 00:06:05;;;;;;;10.50;2.05;;;;;;;;;;6334290;28;20593;-70
2023/10/12 00:09:17;;;;;;;11.10;2.10;;;;;;;;;;6333773;27;20479;-72
2023/10/12 00:12:24;;;;;;;6.28;2.25;;;;;;;;;;6366110;27;20593;-72
2023/10/12 00:15:29;;;;;;;10.48;2.33;;;;;;;;;;6332281;28;20286;-73
2023/10/12 00:18:35;;;;;;;10.20;2.47;;;;;;;;;;6333582;28;20399;-71
2023/10/12 00:21:43;;;;;;;7.15;2.17;;;;;;;;;;6334141;28;20618;-70
2023/10/12 00:24:48;;;;;;;13.20;3.00;;;;;;;;;;6333694;28;20286;-71
2023/10/12 00:27:52;;;;;;;12.50;2.35;;;;;;;;;;6365115;27;20309;-72
2023/10/12 00:30:57;;;;;;;11.32;2.50;;;;;;;;;;6333919;28;20254;-71
2023/10/12 00:34:03;;;;;;;6.13;2.00;;;;;;;;;;6331663;28;20300;-70
2023/10/12 00:37:08;;;;;;;9.27;2.30;;;;;;;;;;6333728;27;20246;-69
2023/10/12 00:43:36;;;;;;;7.47;2.30;;;;;;;;;;6332868;28;20571;-72
2023/10/12 00:46:58;;;;;;;11.07;2.40;;;;;;;;;;6332086;28;20306;-70
2023/10/12 00:50:11;;;;;;;9.98;2.08;;;;;;;;;;6330970;28;20290;-70
2023/10/12 00:53:30;;;;;;;7.93;2.13;;;;;;;;;;6332972;27;20301;-72
2023/10/12 00:56:36;;;;;;;13.05;2.40;;;;;;;;;;6331844;28;20314;-70
2023/10/12 00:59:43;;;;;;;11.15;2.25;;;;;;;;;;6332787;28;20301;-72
2023/10/12 01:03:07;;;;;;;7.95;2.08;;;;;;;;;;6332612;28;20293;-70
2023/10/12 01:06:20;;;;;;;12.93;2.30;;;;;;;;;;6331491;28;20309;-69
2023/10/12 01:09:26;;;;;;;4.43;2.00;;;;;;;;;;6312825;28;20298;-73
2023/10/12 01:12:31;;;;;;;8.93;2.97;;;;;;;;;;6307259;28;20322;-70
2023/10/12 01:15:37;;;;;;;13.70;2.45;;;;;;;;;;6304244;28;20282;-72
2023/10/12 01:18:45;;;;;;;12.82;2.00;;;;;;;;;;6307119;28;20318;-70
2023/10/12 01:21:51;;;;;;;7.32;1.83;;;;;;;;;;6307374;28;20635;-71
2023/10/12 01:25:00;;;;;;;11.98;2.55;;;;;;;;;;6305907;28;20374;-71
2023/10/12 01:28:12;;;;;;;8.88;1.75;;;;;;;;;;6306671;28;20303;-71
2023/10/12 01:31:23;;;;;;;8.85;2.05;;;;;;;;;;6310062;28;20305;-69
2023/10/12 01:34:29;;;;;;;6.70;1.95;;;;;;;;;;6330351;28;20491;-71
2023/10/12 01:37:47;;;;;;;12.35;2.13;;;;;;;;;;6330113;27;20452;-71
2023/10/12 01:40:55;;;;;;;10.00;2.20;;;;;;;;;;6332085;28;20463;-72
2023/10/12 01:44:00;;;;;;;5.40;1.95;;;;;;;;;;6331271;28;20315;-70
2023/10/12 01:47:04;;;;;;;6.05;1.90;;;;;;;;;;6332192;28;20301;-72
2023/10/12 01:50:08;;;;;;;7.75;2.00;;;;;;;;;;6331314;28;20296;-71
2023/10/12 01:53:26;;;;;;;14.68;2.17;;;;;;;;;;6330758;27;20293;-72
2023/10/12 01:56:31;;;;;;;12.10;1.90;;;;;;;;;;6331996;28;20297;-70
2023/10/12 01:59:35;;;;;;;4.90;1.83;;;;;;;;;;6331509;28;20300;-70
2023/10/12 02:02:47;;;;;;;9.18;2.10;;;;;;;;;;6363654;27;20301;-71
2023/10/12 02:05:56;;;;;;;14.95;2.50;;;;;;;;;;6330187;28;20589;-71
2023/10/12 02:09:08;;;;;;;5.80;2.17;;;;;;;;;;6331188;28;20305;-69
2023/10/12 02:12:13;;;;;;;10.13;2.75;;;;;;;;;;6330235;28;20297;-70
2023/10/12 02:15:17;;;;;;;10.45;2.50;;;;;;;;;;6329224;28;20293;-70
2023/10/12 02:18:21;;;;;;;10.00;2.33;;;;;;;;;;6331405;28;20313;-70
2023/10/12 02:21:26;;;;;;;9.02;1.90;;;;;;;;;;6331507;28;20309;-70
2023/10/12 02:24:35;;;;;;;6.40;1.90;;;;;;;;;;6331040;28;20503;-70
2023/10/12 02:27:41;;;;;;;8.18;2.10;;;;;;;;;;6329664;28;20628;-70
2023/10/12 02:30:52;;;;;;;5.15;2.10;;;;;;;;;;6331504;28;20330;-70
2023/10/12 02:33:56;;;;;;;10.32;3.17;;;;;;;;;;6304931;28;20299;-71
2023/10/12 02:37:18;;;;;;;7.20;1.90;;;;;;;;;;6306102;28;20247;-70
2023/10/12 02:40:26;;;;;;;6.38;2.35;;;;;;;;;;6304831;28;20315;-71
2023/10/12 02:43:32;;;;;;;11.65;2.38;;;;;;;;;;6305840;28;20289;-71
2023/10/12 02:46:40;;;;;;;9.98;2.38;;;;;;;;;;6304559;28;20245;-71
2023/10/12 02:49:46;;;;;;;6.40;1.80;;;;;;;;;;6305674;28;20302;-70
2023/10/12 02:52:52;;;;;;;8.15;2.40;;;;;;;;;;6303691;28;20294;-71
2023/10/12 02:56:00;;;;;;;6.45;1.92;;;;;;;;;;6305856;28;20290;-71
2023/10/12 02:59:08;;;;;;;4.28;1.83;;;;;;;;;;6303761;28;20572;-71
2023/10/12 03:02:19;;;;;;;8.18;1.70;;;;;;;;;;6314183;28;20622;-75
2023/10/12 03:05:33;;;;;;;9.10;1.98;;;;;;;;;;6327975;28;20298;-71
2023/10/12 03:08:59;;;;;;;6.72;1.80;;;;;;;;;;6335819;28;20298;-70
2023/10/12 03:12:06;;;;;;;11.25;2.58;;;;;;;;;;6333221;28;20566;-70
2023/10/12 03:15:13;;;;;;;8.93;1.95;;;;;;;;;;6333607;28;20297;-72
2023/10/12 03:18:18;;;;;;;9.15;2.03;;;;;;;;;;6335897;28;20286;-70
2023/10/12 03:21:23;;;;;;;8.73;2.22;;;;;;;;;;6333751;28;20285;-69
2023/10/12 03:24:43;;;;;;;4.22;1.73;;;;;;;;;;6335411;28;20443;-70
2023/10/12 03:27:52;;;;;;;7.32;2.30;;;;;;;;;;6334075;28;20299;-70
2023/10/12 03:31:11;;;;;;;8.77;1.73;;;;;;;;;;6334058;28;20560;-70
2023/10/12 03:34:30;;;;;;;4.93;1.85;;;;;;;;;;6335002;28;20297;-72
2023/10/12 03:37:50;;;;;;;10.25;2.63;;;;;;;;;;6335080;28;20611;-70
2023/10/12 03:41:46;;;;;;;4.32;1.75;;;;;;;;;;6334491;28;20290;-70
2023/10/12 03:44:22;;;;;;;3.97;1.80;;;;;;;;;;6332940;28;20305;-71
2023/10/12 03:47:30;;;;;;;4.78;2.05;;;;;;;;;;6335355;28;20305;-70
2023/10/12 03:50:52;;;;;;;7.60;1.83;;;;;;;;;;6334585;28;20550;-72
2023/10/12 03:54:11;;;;;;;8.68;2.05;;;;;;;;;;6334290;28;20301;-71
2023/10/12 03:57:20;;;;;;;5.63;1.90;;;;;;;;;;6335129;28;20313;-71
2023/10/12 04:00:32;;;;;;;4.60;1.73;;;;;;;;;;6334210;28;20290;-70
2023/10/12 04:03:39;;;;;;;7.35;1.60;;;;;;;;;;6334548;28;20306;-70
2023/10/12 04:07:16;;;;;;;7.47;2.22;;;;;;;;;;6334230;28;20617;-70
2023/10/12 04:11:45;;;;;;;3.45;1.65;;;;;;;;;;6332681;28;20318;-70
2023/10/12 04:14:09;;;;;;;5.10;1.45;;;;;;;;;;6305924;28;20294;-71
2023/10/12 04:20:45;;;;;;;7.75;1.98;;;;;;;;;;6309816;28;20304;-71
2023/10/12 04:24:27;;;;;;;5.65;1.67;;;;;;;;;;6308258;28;20290;-70
2023/10/12 04:30:43;;;;;;;11.32;1.77;;;;;;;;;;6308208;28;20310;-72
2023/10/12 04:34:06;;;;;;;5.43;1.58;;;;;;;;;;6331899;28;20302;-70
2023/10/12 04:37:12;;;;;;;2.50;1.58;;;;;;;;;;6332694;27;20289;-71
2023/10/12 04:43:53;;;;;;;2.50;1.35;;;;;;;;;;6354463;27;20312;-71
2023/10/12 04:47:03;;;;;;;2.95;1.60;;;;;;;;;;6303404;28;20298;-70
2023/10/12 04:50:07;;;;;;;2.45;1.83;;;;;;;;;;6302995;28;20290;-72
2023/10/12 04:53:12;;;;;;;5.22;1.40;;;;;;;;;;6303420;28;20393;-70
2023/10/12 04:56:18;;;;;;;6.05;1.75;;;;;;;;;;6284324;28;20290;-71
2023/10/12 04:59:27;;;;;;;2.88;1.70;;;;;;;;;;6302625;28;20294;-71
2023/10/12 05:02:42;;;;;;;4.68;1.40;;;;;;;;;;6284693;28;20409;-70
2023/10/12 05:05:57;;;;;;;6.22;1.52;;;;;;;;;;6302293;28;20306;-72
2023/10/12 05:09:09;;;;;;;7.88;2.00;;;;;;;;;;6302378;28;20285;-71
2023/10/12 05:12:14;;;;;;;7.30;1.60;;;;;;;;;;6302569;28;20286;-69
2023/10/12 05:15:20;;;;;;;6.80;2.25;;;;;;;;;;6300271;28;20299;-70
2023/10/12 05:18:25;;;;;;;2.90;1.30;;;;;;;;;;6302410;28;20342;-70
2023/10/12 05:21:29;;;;;;;5.63;1.60;;;;;;;;;;6301648;28;20302;-70
2023/10/12 05:24:33;;;;;;;4.95;1.70;;;;;;;;;;6301746;28;20344;-70
2023/10/12 05:27:39;;;;;;;3.90;1.42;;;;;;;;;;6302145;28;20498;-70
2023/10/12 05:30:49;;;;;;;12.82;1.90;;;;;;;;;;6301611;28;20303;-72
2023/10/12 05:34:18;;;;;;;5.25;1.23;;;;;;;;;;6300729;28;20579;-70
2023/10/12 05:37:26;;;;;;;6.05;2.00;;;;;;;;;;6301725;28;20559;-69
2023/10/12 05:40:35;;;;;;;4.85;1.95;;;;;;;;;;6301390;28;20568;-69
2023/10/12 05:43:40;;;;;;;2.47;1.42;;;;;;;;;;6301270;28;20298;-71
2023/10/12 05:46:50;;;;;;;7.47;1.70;;;;;;;;;;6300887;28;20306;-68
2023/10/12 05:49:57;;;;;;;3.42;1.67;;;;;;;;;;6300782;28;20300;-70
2023/10/12 05:53:01;;;;;;;5.70;1.90;;;;;;;;;;6296401;28;20303;-71
2023/10/12 05:56:06;;;;;;;4.15;1.50;;;;;;;;;;6284065;28;20375;-68
2023/10/12 05:59:12;;;;;;;8.98;1.50;;;;;;;;;;6284441;28;20291;-68
2023/10/12 06:02:18;;;;;;;4.22;1.73;;;;;;;;;;6284487;28;20442;-68
2023/10/12 06:05:22;;;;;;;6.50;1.75;;;;;;;;;;6284714;28;20302;-71
2023/10/12 06:08:30;;;;;;;10.35;1.73;;;;;;;;;;6284402;28;20302;-71
2023/10/12 06:11:34;;;;;;;6.80;1.67;;;;;;;;;;6293392;28;20299;-70
2023/10/12 06:14:39;;;;;;;6.45;1.50;;;;;;;;;;6289868;28;20302;-71
2023/10/12 06:17:49;;;;;;;5.70;2.00;;;;;;;;;;6283416;28;20295;-71
2023/10/12 06:20:58;;;;;;;4.55;1.70;;;;;;;;;;6284173;28;20302;-70
2023/10/12 06:24:05;;;;;;;3.13;1.65;;;;;;;;;;6283539;28;20295;-71
2023/10/12 06:27:22;;;;;;;2.85;1.25;;;;;;;;;;6284853;28;20583;-71
2023/10/12 06:30:28;;;;;;;4.03;1.52;;;;;;;;;;6283237;28;20287;-69
2023/10/12 06:33:34;;;;;;;3.97;1.88;;;;;;;;;;6283250;28;20479;-70
2023/10/12 06:36:43;;;;;;;7.63;1.98;;;;;;;;;;6284004;28;20283;-70
2023/10/12 06:40:26;;;;;;;6.13;1.58;;;;;;;;;;6282625;28;20314;-71
2023/10/12 06:46:58;;;;;;;5.45;1.85;;;;;;;;;;6259107;28;20314;-70
2023/10/12 06:50:06;;;;;;;7.07;2.00;;;;;;;;;;6281121;28;20245;-70
2023/10/12 06:53:11;;;;;;;4.32;1.52;;;;;;;;;;6282767;28;20291;-70
2023/10/12 06:56:24;;;;;;;5.15;1.30;;;;;;;;;;6283052;28;20314;-70
2023/10/12 06:59:35;;;;;;;6.88;1.95;;;;;;;;;;6282876;28;20295;-71
2023/10/12 07:02:42;;;;;;;4.60;1.48;;;;;;;;;;6282794;28;20481;-70
2023/10/12 07:05:53;;;;;;;5.78;1.83;;;;;;;;;;6282475;28;20299;-70
2023/10/12 07:08:56;;;;;;;4.47;1.30;;;;;;;;;;6282707;28;20303;-70
2023/10/12 07:12:00;;;;;;;6.38;1.95;;;;;;;;;;6282812;28;20299;-70
2023/10/12 07:15:10;;;;;;;6.50;1.60;;;;;;;;;;6280645;28;20290;-70
2023/10/12 07:18:16;;;;;;;7.63;1.60;;;;;;;;;;6282321;28;20310;-69
2023/10/12 07:21:21;;;;;;;2.92;1.58;;;;;;;;;;6283139;28;20287;-69
2023/10/12 07:24:26;;;;;;;4.22;1.40;;;;;;;;;;6282038;28;20316;-71
2023/10/12 07:27:48;;;;;;;3.80;1.50;;;;;;;;;;6281985;28;20291;-70
2023/10/12 07:34:19;;;;;;;7.78;1.65;;;;;;;;;;6260568;28;20284;-70
2023/10/12 07:37:27;;;;;;;4.57;1.80;;;;;;;;;;6277802;28;20296;-71
2023/10/12 07:40:37;;;;;;;2.58;2.30;;;;;;;;;;6256566;28;20284;-69
2023/10/12 07:43:44;;;;;;;3.08;1.35;;;;;;;;;;6255100;28;20492;-69
2023/10/12 07:46:48;;;;;;;5.28;1.67;;;;;;;;;;6257479;28;20302;-70
2023/10/12 07:49:57;;;;;;;4.78;1.60;;;;;;;;;;6256724;28;20300;-70
2023/10/12 07:53:21;;;;;;;1.83;1.48;;;;;;;;;;6257031;28;20604;-71
2023/10/12 07:56:31;;;;;;;8.52;1.48;;;;;;;;;;6257415;28;20344;-70
2023/10/12 07:59:38;;;;;;;5.28;1.35;;;;;;;;;;6256813;28;20387;-70
2023/10/12 08:06:15;;;;;;;6.18;1.42;;;;;;;;;;6257165;28;20307;-70
2023/10/12 08:09:34;;;;;;;2.38;1.25;;;;;;;;;;6256784;28;20308;-69
2023/10/12 08:12:38;;;;;;;3.63;1.23;;;;;;;;;;6276460;28;20291;-69
2023/10/12 08:15:55;;;;;;;2.25;1.17;;;;;;;;;;6304399;28;20298;-69
2023/10/12 08:22:26;;;;;;;0.90;0.82;;;;;;;;;;6307026;28;20314;-69
2023/10/12 08:25:38;;;;;;;0.70;0.65;;;;;;;;;;6304924;28;20551;-69
2023/10/12 08:28:55;;;;;;;4.20;0.88;;;;;;;;;;6306358;28;20318;-69
2023/10/12 08:32:04;;;;;;;2.70;1.00;;;;;;;;;;6297573;28;20620;-70
2023/10/12 08:35:32;;;;;;;2.45;0.98;;;;;;;;;;6281333;28;20295;-69
2023/10/12 08:38:40;;;;;;;7.05;1.40;;;;;;;;;;6281104;28;20295;-71
2023/10/12 08:42:19;;;;;;;0.90;0.90;;;;;;;;;;6281356;28;20311;-71
2023/10/12 08:45:23;;;;;;;3.65;0.70;;;;;;;;;;6281392;28;20298;-71
2023/10/12 08:48:32;;;;;;;2.30;0.82;;;;;;;;;;6281050;28;20302;-71
2023/10/12 08:51:35;;;;;;;1.02;0.75;;;;;;;;;;6281484;28;20298;-69
2023/10/12 08:54:40;;;;;;;3.00;1.00;;;;;;;;;;6281181;28;20322;-70
2023/10/12 08:57:52;;;;;;;4.60;0.93;;;;;;;;;;6280840;28;20298;-71
2023/10/12 09:01:09;;;;;;;1.10;0.85;;;;;;;;;;6281052;28;20348;-69
2023/10/12 09:04:13;;;;;;;0.82;0.80;;;;;;;;;;6280781;28;20318;-69
2023/10/12 09:07:19;;;;;;;2.67;0.80;;;;;;;;;;6281354;28;20318;-70
2023/10/12 09:10:36;;;;;;;3.50;0.82;;;;;;;;;;6280886;28;20583;-70
2023/10/12 09:13:45;;;;;;;1.02;0.75;;;;;;;;;;6278841;28;20600;-70
2023/10/12 09:16:53;;;;;;;2.15;1.10;;;;;;;;;;6281215;28;20295;-70
2023/10/12 09:20:26;;;;;;;2.90;0.95;;;;;;;;;;6280524;28;20315;-69
2023/10/12 09:23:42;;;;;;;4.55;0.80;;;;;;;;;;6279006;28;20482;-69
2023/10/12 09:26:50;;;;;;;3.33;0.77;;;;;;;;;;6281176;28;20454;-70
2023/10/12 09:30:15;;;;;;;0.80;0.80;;;;;;;;;;6284364;28;20299;-71
2023/10/12 09:36:37;;;;;;;2.00;1.17;;;;;;;;;;6310437;28;20287;-70
2023/10/12 09:39:41;;;;;;;1.50;0.88;;;;;;;;;;6309974;28;20819;-69
2023/10/12 09:42:47;;;;;;;4.35;1.23;;;;;;;;;;6310439;28;20543;-69
2023/10/12 09:45:58;;;;;;;0.90;0.90;;;;;;;;;;6310073;28;20286;-68
2023/10/12 09:49:06;;;;;;;0.60;0.60;;;;;;;;;;6310147;28;20462;-70
2023/10/12 09:52:14;;;;;;;0.80;0.80;;;;;;;;;;6310155;28;20295;-69
2023/10/12 09:55:25;;;;;;;2.15;0.80;;;;;;;;;;6309795;28;20282;-69
2023/10/12 09:58:32;;;;;;;1.00;1.00;;;;;;;;;;6309726;28;20298;-72
2023/10/12 10:01:50;;;;;;;2.15;0.80;;;;;;;;;;6310245;28;20294;-70
2023/10/12 10:05:01;;;;;;;3.25;0.75;;;;;;;;;;6309293;28;20314;-71
2023/10/12 10:08:06;;;;;;;0.88;0.85;;;;;;;;;;6309456;28;20286;-71
2023/10/12 10:11:12;;;;;;;0.77;0.77;;;;;;;;;;6303922;28;20302;-70
2023/10/12 10:14:20;;;;;;;1.40;0.88;;;;;;;;;;6282345;28;20383;-70
2023/10/12 10:17:26;;;;;;;0.80;0.80;;;;;;;;;;6284785;28;20303;-70
2023/10/12 10:20:56;;;;;;;1.35;0.65;;;;;;;;;;6283523;28;20291;-71
2023/10/12 10:24:02;;;;;;;0.60;0.60;;;;;;;;;;6283693;28;20502;-71
2023/10/12 10:27:13;;;;;;;1.65;0.70;;;;;;;;;;6284382;28;20515;-72
2023/10/12 10:30:25;;;;;;;0.80;0.80;;;;;;;;;;6283873;28;20307;-70
2023/10/12 10:33:30;;;;;;;1.75;0.80;;;;;;;;;;6304576;28;20318;-71
2023/10/12 10:36:36;;;;;;;0.85;0.75;;;;;;;;;;6309111;28;20282;-69
2023/10/12 10:39:43;;;;;;;1.00;1.00;;;;;;;;;;6308236;28;20299;-70
2023/10/12 10:42:58;;;;;;;1.60;0.98;;;;;;;;;;6308136;28;20294;-73
2023/10/12 10:46:05;;;;;;;3.28;0.75;;;;;;;;;;6307793;28;20576;-70
2023/10/12 10:49:17;;;;;;;1.67;0.90;;;;;;;;;;6308482;28;20294;-69
2023/10/12 10:52:26;;;;;;;4.45;0.90;;;;;;;;;;6308381;28;20294;-71
2023/10/12 10:55:31;;;;;;;3.58;0.93;;;;;;;;;;6307139;28;20301;-70
2023/10/12 10:58:37;;;;;;;3.47;0.90;;;;;;;;;;6308368;28;20292;-70
2023/10/12 11:01:46;;;;;;;0.80;0.80;;;;;;;;;;6308277;28;20290;-70
2023/10/12 11:04:59;;;;;;;1.08;1.00;;;;;;;;;;6307304;28;20290;-70
2023/10/12 11:08:19;;;;;;;4.07;0.90;;;;;;;;;;6307277;28;20598;-72
2023/10/12 11:11:26;;;;;;;0.80;0.80;;;;;;;;;;6300422;28;20495;-70
2023/10/12 11:14:31;;;;;;;1.58;0.75;;;;;;;;;;6278819;28;20299;-69
2023/10/12 11:17:40;;;;;;;0.70;0.70;;;;;;;;;;6282515;28;20295;-69
2023/10/12 11:20:49;;;;;;;1.30;0.80;;;;;;;;;;6282963;28;20291;-70
2023/10/12 11:24:01;;;;;;;0.77;0.77;;;;;;;;;;6282396;28;20470;-70
2023/10/12 11:27:07;;;;;;;2.25;0.82;;;;;;;;;;6282511;28;20796;-69
2023/10/12 11:30:19;;;;;;;3.35;0.95;;;;;;;;;;6282513;28;20302;-69
2023/10/12 11:33:27;;;;;;;6.43;0.90;;;;;;;;;;6302129;28;20294;-69
2023/10/12 11:36:33;;;;;;;0.88;0.88;;;;;;;;;;6307458;28;20298;-70
2023/10/12 11:39:43;;;;;;;0.50;0.50;;;;;;;;;;6307266;28;20317;-70
2023/10/12 11:42:53;;;;;;;1.75;0.68;;;;;;;;;;6306767;28;20294;-71
2023/10/12 11:46:01;;;;;;;0.70;0.70;;;;;;;;;;6306302;28;20294;-70
2023/10/12 11:49:10;;;;;;;4.75;0.68;;;;;;;;;;6306828;28;20294;-69
2023/10/12 11:52:29;;;;;;;0.70;0.70;;;;;;;;;;6306446;28;20300;-70
2023/10/12 11:55:40;;;;;;;1.10;0.70;;;;;;;;;;6306280;28;20290;-70
2023/10/12 11:58:47;;;;;;;1.13;0.90;;;;;;;;;;6306781;28;20282;-69
2023/10/12 12:01:55;;;;;;;0.93;0.50;;;;;;;;;;6305217;28;20298;-70
2023/10/12 12:05:00;;;;;;;0.65;0.60;;;;;;;;;;6306341;28;20311;-70
2023/10/12 12:08:14;;;;;;;0.50;0.50;;;;;;;;;;6306052;28;20301;-69
2023/10/12 12:11:20;;;;;;;0.70;0.70;;;;;;;;;;6299290;28;20286;-69
2023/10/12 12:14:24;;;;;;;1.20;0.80;;;;;;;;;;6279501;28;20299;-71
2023/10/12 12:17:29;;;;;;;0.63;0.55;;;;;;;;;;6281288;28;20371;-69
2023/10/12 12:20:39;;;;;;;1.80;0.65;;;;;;;;;;6281810;28;20306;-70
2023/10/12 12:23:48;;;;;;;1.95;0.65;;;;;;;;;;6281227;28;20307;-69
2023/10/12 12:26:53;;;;;;;0.68;0.68;;;;;;;;;;6281547;28;20592;-69
2023/10/12 12:29:58;;;;;;;0.50;0.50;;;;;;;;;;6281370;28;20298;-69
2023/10/12 12:33:23;;;;;;;2.55;0.45;;;;;;;;;;6301127;28;20290;-69
2023/10/12 12:36:29;;;;;;;0.65;0.60;;;;;;;;;;6306598;28;20309;-71
2023/10/12 12:39:35;;;;;;;0.70;0.70;;;;;;;;;;6305915;28;20302;-71
2023/10/12 12:42:39;;;;;;;2.38;0.55;;;;;;;;;;6305715;28;20374;-70
2023/10/12 12:45:43;;;;;;;0.40;0.40;;;;;;;;;;6306205;28;20298;-72
2023/10/12 12:48:50;;;;;;;0.60;0.60;;;;;;;;;;6305892;28;20554;-70
2023/10/12 12:51:54;;;;;;;2.00;0.50;;;;;;;;;;6305301;28;20271;-69
2023/10/12 12:55:01;;;;;;;0.70;0.70;;;;;;;;;;6305629;28;20294;-70
2023/10/12 12:58:06;;;;;;;2.08;0.70;;;;;;;;;;6304320;28;20298;-70
2023/10/12 13:01:10;;;;;;;2.05;0.90;;;;;;;;;;6306149;28;20298;-69
2023/10/12 13:04:16;;;;;;;0.63;0.60;;;;;;;;;;6308354;28;20298;-71
2023/10/12 13:07:22;;;;;;;4.55;0.70;;;;;;;;;;6310014;28;20305;-70
2023/10/12 13:10:28;;;;;;;1.30;0.57;;;;;;;;;;6285371;28;20295;-70
2023/10/12 13:13:34;;;;;;;0.60;0.60;;;;;;;;;;6283618;28;20298;-70
2023/10/12 13:16:40;;;;;;;1.58;0.70;;;;;;;;;;6286063;28;20290;-70
2023/10/12 13:19:45;;;;;;;0.57;0.57;;;;;;;;;;6285423;28;20307;-70
2023/10/12 13:22:49;;;;;;;0.40;0.40;;;;;;;;;;6285389;28;20310;-70
2023/10/12 13:25:54;;;;;;;0.80;0.50;;;;;;;;;;6285590;28;20282;-71
2023/10/12 13:29:01;;;;;;;1.25;0.40;;;;;;;;;;6285353;28;20314;-70
2023/10/12 13:32:08;;;;;;;0.60;0.60;;;;;;;;;;6285376;28;20299;-70
2023/10/12 13:35:31;;;;;;;1.23;0.68;;;;;;;;;;6284877;28;20298;-69
2023/10/12 13:38:37;;;;;;;1.17;0.70;;;;;;;;;;6284937;28;20299;-69
2023/10/12 13:41:43;;;;;;;2.38;0.60;;;;;;;;;;6285272;28;20371;-70
2023/10/12 13:44:49;;;;;;;2.08;0.60;;;;;;;;;;6284609;28;20311;-71
2023/10/12 13:47:53;;;;;;;1.40;0.60;;;;;;;;;;6284500;28;20299;-70
2023/10/12 13:51:01;;;;;;;1.27;0.70;;;;;;;;;;6285023;28;20303;-71
2023/10/12 13:54:06;;;;;;;3.38;0.73;;;;;;;;;;6284600;28;20299;-70
2023/10/12 13:57:14;;;;;;;2.15;0.60;;;;;;;;;;6284844;28;20321;-69
2023/10/12 14:00:22;;;;;;;2.38;0.80;;;;;;;;;;6284326;28;20587;-71
2023/10/12 14:03:29;;;;;;;4.63;1.27;;;;;;;;;;6284422;28;20302;-70
2023/10/12 14:06:33;;;;;;;1.55;0.60;;;;;;;;;;6285367;28;20303;-70
2023/10/12 14:09:39;;;;;;;4.78;0.63;;;;;;;;;;6284425;28;20306;-69
2023/10/12 14:12:45;;;;;;;3.00;0.63;;;;;;;;;;6284231;28;20486;-70
2023/10/12 14:15:49;;;;;;;2.80;0.70;;;;;;;;;;6282457;28;20295;-71
2023/10/12 14:18:54;;;;;;;1.83;0.60;;;;;;;;;;6282351;28;20291;-69
2023/10/12 14:22:00;;;;;;;0.60;0.60;;;;;;;;;;6284442;28;20255;-71
2023/10/12 14:25:07;;;;;;;0.90;0.60;;;;;;;;;;6284193;28;20299;-69
2023/10/12 14:28:16;;;;;;;1.08;0.60;;;;;;;;;;6283892;28;20303;-71
2023/10/12 14:31:21;;;;;;;0.57;0.57;;;;;;;;;;6288068;28;20282;-70
2023/10/12 14:34:25;;;;;;;0.63;0.63;;;;;;;;;;6308751;28;20476;-71
2023/10/12 14:37:36;;;;;;;0.50;0.50;;;;;;;;;;6308561;28;20294;-70
2023/10/12 14:40:40;;;;;;;0.65;0.65;;;;;;;;;;6308968;28;20293;-70
2023/10/12 14:43:47;;;;;;;0.68;0.68;;;;;;;;;;6308231;28;20282;-70
2023/10/12 14:46:54;;;;;;;0.50;0.50;;;;;;;;;;6308730;28;20286;-70
2023/10/12 14:50:02;;;;;;;1.60;0.70;;;;;;;;;;6308164;28;20301;-71
2023/10/12 14:53:09;;;;;;;2.72;0.60;;;;;;;;;;6308303;28;20294;-70
2023/10/12 14:56:14;;;;;;;0.60;0.60;;;;;;;;;;6308845;28;20298;-70
2023/10/12 14:59:19;;;;;;;0.57;0.57;;;;;;;;;;6308413;28;20294;-71
2023/10/12 15:02:25;;;;;;;0.60;0.60;;;;;;;;;;6308674;28;20362;-72
2023/10/12 15:05:31;;;;;;;2.03;0.70;;;;;;;;;;6307809;28;20303;-69
2023/10/12 15:08:36;;;;;;;0.52;0.52;;;;;;;;;;6307679;28;20611;-71
2023/10/12 15:11:44;;;;;;;3.38;0.70;;;;;;;;;;6298358;28;20552;-72
2023/10/12 15:14:54;;;;;;;3.83;0.75;;;;;;;;;;6281071;28;20292;-72
2023/10/12 15:17:59;;;;;;;1.75;0.50;;;;;;;;;;6282552;28;20345;-70
2023/10/12 15:21:04;;;;;;;0.63;0.63;;;;;;;;;;6283064;28;20303;-71
2023/10/12 15:24:28;;;;;;;2.35;0.57;;;;;;;;;;6282703;28;20311;-70
2023/10/12 15:27:32;;;;;;;0.60;0.60;;;;;;;;;;6281594;28;20302;-69
2023/10/12 15:30:39;;;;;;;2.42;0.60;;;;;;;;;;6282903;28;20307;-71
2023/10/12 15:33:43;;;;;;;3.50;0.60;;;;;;;;;;6305250;28;20291;-71
2023/10/12 15:36:47;;;;;;;0.60;0.60;;;;;;;;;;6307584;28;20298;-70
2023/10/12 15:39:51;;;;;;;1.35;0.65;;;;;;;;;;6306698;28;20298;-70
2023/10/12 15:42:57;;;;;;;5.57;0.90;;;;;;;;;;6306907;28;20294;-70
2023/10/12 15:46:08;;;;;;;0.65;0.60;;;;;;;;;;6307383;28;20247;-71
2023/10/12 15:49:13;;;;;;;1.10;0.60;;;;;;;;;;6307040;28;20298;-70
2023/10/12 15:52:17;;;;;;;0.70;0.70;;;;;;;;;;6307249;28;20286;-70
2023/10/12 15:55:23;;;;;;;0.52;0.52;;;;;;;;;;6306734;28;20318;-72
2023/10/12 15:58:27;;;;;;;0.65;0.65;;;;;;;;;;6306645;28;20318;-70
2023/10/12 16:01:33;;;;;;;1.92;0.55;;;;;;;;;;6307180;28;20290;-71
2023/10/12 16:04:36;;;;;;;0.93;0.75;;;;;;;;;;6306609;28;20286;-70
2023/10/12 16:07:42;;;;;;;4.40;0.88;;;;;;;;;;6306702;28;20358;-71
2023/10/12 16:10:48;;;;;;;3.42;0.70;;;;;;;;;;6304934;28;20301;-70
2023/10/12 16:13:53;;;;;;;1.80;0.70;;;;;;;;;;6279696;28;20287;-71
2023/10/12 16:17:00;;;;;;;2.05;0.65;;;;;;;;;;6281680;28;20299;-70
2023/10/12 16:20:09;;;;;;;1.45;0.63;;;;;;;;;;6281822;28;20425;-71
2023/10/12 16:23:13;;;;;;;0.50;0.50;;;;;;;;;;6281384;28;20336;-70
2023/10/12 16:26:17;;;;;;;1.05;0.70;;;;;;;;;;6282073;28;20294;-70
2023/10/12 16:29:21;;;;;;;8.35;1.10;;;;;;;;;;6281330;28;20319;-70
2023/10/12 16:32:26;;;;;;;0.70;0.70;;;;;;;;;;6294327;28;20310;-70
2023/10/12 16:35:30;;;;;;;2.90;1.20;;;;;;;;;;6294707;28;20294;-70
2023/10/12 16:38:34;;;;;;;0.82;0.52;;;;;;;;;;6305776;28;20305;-71
2023/10/12 16:41:39;;;;;;;0.60;0.60;;;;;;;;;;6306381;28;20468;-72
2023/10/12 16:44:43;;;;;;;3.15;0.70;;;;;;;;;;6306139;28;20302;-70
2023/10/12 16:47:48;;;;;;;1.52;0.65;;;;;;;;;;6306040;28;20602;-70
2023/10/12 16:50:52;;;;;;;2.95;0.57;;;;;;;;;;6306471;28;20278;-69
2023/10/12 16:53:56;;;;;;;1.65;0.63;;;;;;;;;;6305979;28;20310;-70
2023/10/12 16:57:00;;;;;;;2.30;0.70;;;;;;;;;;6306491;28;20297;-70
2023/10/12 17:00:07;;;;;;;2.15;0.80;;;;;;;;;;6306053;28;20298;-71
2023/10/12 17:03:15;;;;;;;1.83;0.70;;;;;;;;;;6303438;28;20293;-70
2023/10/12 17:06:19;;;;;;;1.40;0.80;;;;;;;;;;6307107;28;20293;-70
2023/10/12 17:09:23;;;;;;;3.83;0.77;;;;;;;;;;6304550;28;20489;-70
2023/10/12 17:12:29;;;;;;;0.70;0.70;;;;;;;;;;6289118;28;20330;-71
2023/10/12 17:15:33;;;;;;;1.55;0.80;;;;;;;;;;6279498;28;20303;-71
2023/10/12 17:18:39;;;;;;;1.40;0.70;;;;;;;;;;6281087;28;20298;-73
2023/10/12 17:21:42;;;;;;;1.75;0.80;;;;;;;;;;6281346;28;20410;-68
2023/10/12 17:24:46;;;;;;;0.80;0.80;;;;;;;;;;6280906;28;20294;-70
2023/10/12 17:27:52;;;;;;;1.00;1.00;;;;;;;;;;6279762;28;20599;-70
2023/10/12 17:30:57;;;;;;;1.95;0.60;;;;;;;;;;6281293;28;20336;-70
2023/10/12 17:34:03;;;;;;;2.05;1.02;;;;;;;;;;6303649;28;20535;-71
2023/10/12 17:37:09;;;;;;;3.00;1.00;;;;;;;;;;6307152;28;20263;-69
2023/10/12 17:40:15;;;;;;;0.95;0.80;;;;;;;;;;6306990;28;20294;-68
2023/10/12 17:43:20;;;;;;;0.82;0.80;;;;;;;;;;6304925;28;20440;-70
2023/10/12 17:46:25;;;;;;;1.35;0.70;;;;;;;;;;6305685;28;20283;-68
2023/10/12 17:49:30;;;;;;;1.60;0.80;;;;;;;;;;6306431;28;20250;-68
2023/10/12 17:52:34;;;;;;;0.77;0.77;;;;;;;;;;6309920;28;20290;-69
2023/10/12 17:55:38;;;;;;;2.00;1.23;;;;;;;;;;6310025;28;20297;-68
2023/10/12 17:58:42;;;;;;;0.65;0.65;;;;;;;;;;6309784;28;20301;-69
2023/10/12 18:01:47;;;;;;;1.20;0.82;;;;;;;;;;6310341;28;20298;-69
2023/10/12 18:04:53;;;;;;;1.95;0.80;;;;;;;;;;6309759;28;20297;-70
2023/10/12 18:07:58;;;;;;;2.53;1.00;;;;;;;;;;6309431;28;20293;-70
2023/10/12 18:11:03;;;;;;;1.17;1.17;;;;;;;;;;6305240;28;20298;-71
2023/10/12 18:14:07;;;;;;;0.88;0.70;;;;;;;;;;6282904;28;20287;-70
2023/10/12 18:17:11;;;;;;;2.47;0.70;;;;;;;;;;6285321;28;20295;-69
2023/10/12 18:20:18;;;;;;;0.80;0.80;;;;;;;;;;6285395;28;20295;-69
2023/10/12 18:23:22;;;;;;;0.80;0.80;;;;;;;;;;6285299;28;20295;-71
2023/10/12 18:26:25;;;;;;;1.85;0.70;;;;;;;;;;6283275;28;20554;-69
2023/10/12 18:29:30;;;;;;;0.70;0.70;;;;;;;;;;6284264;28;20238;-70
2023/10/12 18:32:34;;;;;;;1.55;0.57;;;;;;;;;;6297714;28;20302;-70
2023/10/12 18:35:39;;;;;;;1.45;0.60;;;;;;;;;;6309740;28;20366;-69
2023/10/12 18:38:43;;;;;;;0.70;0.70;;;;;;;;;;6309184;28;20290;-69
2023/10/12 18:41:47;;;;;;;1.00;1.00;;;;;;;;;;6309557;28;20635;-71
2023/10/12 18:44:51;;;;;;;4.78;0.95;;;;;;;;;;6309617;28;20313;-69
2023/10/12 18:47:55;;;;;;;0.73;0.73;;;;;;;;;;6309393;28;20611;-70
2023/10/12 18:51:04;;;;;;;0.80;0.80;;;;;;;;;;6309229;28;20297;-69
2023/10/12 18:54:08;;;;;;;0.93;0.88;;;;;;;;;;6308697;28;20615;-70
2023/10/12 18:57:12;;;;;;;1.25;0.80;;;;;;;;;;6308875;28;20293;-70
2023/10/12 19:00:17;;;;;;;2.85;1.05;;;;;;;;;;6306639;28;20290;-71
2023/10/12 19:03:21;;;;;;;0.85;0.85;;;;;;;;;;6308529;28;20297;-70
2023/10/12 19:06:27;;;;;;;1.35;1.20;;;;;;;;;;6308609;28;20381;-71
2023/10/12 19:09:31;;;;;;;5.32;0.80;;;;;;;;;;6307998;28;20306;-71
2023/10/12 19:12:35;;;;;;;3.72;1.10;;;;;;;;;;6290065;28;20298;-70
2023/10/12 19:15:39;;;;;;;1.92;1.02;;;;;;;;;;6281532;28;20307;-69
2023/10/12 19:18:44;;;;;;;0.80;0.80;;;;;;;;;;6282963;28;20294;-69
2023/10/12 19:21:50;;;;;;;4.30;0.80;;;;;;;;;;6283380;28;20681;-70